Buffalo, WY (82834)

9:51 PM MST on December 04, 2016 (GMT -0700)
Buffalo | | Change Station
Active Advisory: Winter Weather Advisory Active Notice: Public Information Statement

Elev 4708 ft 44.34 °N, 106.70 °W | Updated 14 seconds ago

Clear
Clear
31.6 °F
Feels Like 32 °F
N
1.1
Wind Variable Wind from SE
Gusts 2.5 mph

Today
High -- | Low -- °F
--% Chance of Precip.
Yesterday
High -- | Low -- °F
Precip. -- in
Pressure 29.52 in
Visibility 10.0 miles
Clouds Clear
Windchill 32 °F
Dew Point 18 °F
Humidity 58%
Rainfall 0.00 in
Snow Depth Not available.
7:26 AM 4:27 PM
Waxing Crescent, 28% visible
METAR KBYG 050353Z AUTO 21007KT 10SM CLR 04/M08 A2950 RMK AO2 SLP994 T00391078
Pressure 29.52 in
Visibility 10.0 miles
Clouds Clear
Windchill 32 °F
Dew Point 18 °F
Humidity 58%
Rainfall 0.00 in
Snow Depth Not available.
7:26 AM 4:27 PM
Waxing Crescent, 28% visible
METAR KBYG 050353Z AUTO 21007KT 10SM CLR 04/M08 A2950 RMK AO2 SLP994 T00391078

10-Day Weather Forecast

Almanac

Astronomy

Dec. 04, 2016 Rise Set
Actual Time
Civil Twilight
Nautical Twilight
Astronomical Twilight
Moon
Length of Visible Light
Length of Day
Tomorrow will be .
, % of the Moon is Illuminated

Today's Extremes

State Highs State Lows

Community

WunderPhotos

Upload Photos

1,955,763 photos uploaded!

WunderBlog® & News

Nearby

Air Quality

  Air Quality AQ Index Pollutant
Not available.

Snow Depth

Station Depth Elevation

Earthquake Activity

City Distance Mag. Time & Date
Minimum magnitude displayed is 2.5.

Coastal Water Temperatures

Place Temperature

Stations

Nearby Weather Stations

Station Location Temp. Windchill Dew Point Humidity Wind Precip. Elev Updated Type
                   

Watches & Warnings

Winter Weather Advisory
Issued: 9:18 PM MST Dec. 4, 2016 – National Weather Service

... Winter Weather Advisory remains in effect until noon MST
Monday...

* timing... snow across northern Wyoming is expected to develop
from midnight to early morning continuing until noon.

* Total snowfall... possible 5 to 10 inches in the Bighorn
Mountains with 2 to 4 inches from Buffalo to Kaycee.

* Wind and visibility... north to northwest wind increasing to 15
to 25 mph with gusts 40 mph may cause areas of blowing and
drifting snow... with visibility down to a quarter mile or less
at times on Powder River Pass and along Interstate highways 90
and 25.

* Impacts... roads may become slick... and snow packed with
limited visibility at times. People planning outdoor
activities should be prepared for adverse winter weather
conditions and take the proper precautions.

Precautionary/preparedness actions...

A Winter Weather Advisory for snow and blowing snow means periods
of snow will cause primarily travel difficulties. Be prepared for
snow covered and slick roads with limited visibilities. Slow
down... and allow extra time to reach your destination. Check the
latest Road conditions at wyoroad.Info or by dialing 5 1 1.